Edith Maersk — OXOR2 — position and weather

sailwx.info

Track history (hours):
 
Tides and Currents Weather Stations Pressure Air Temp Water Temp Dewpoint Dewpoint Depression Visibility Wind Speed Wind Dir Waves Ship Positions

Edith Maersk

Last reported at 2018-Aug-09 06:17 UTC. Time now 2018-Aug-17 11:43 UTC.
Position N 01°32' E 103°01'.
Warning: this ship's position is 8 days out of date.

Length 399 m; draft 14.8 m.

Type: Ship (hazmat cat A). MMSI: 220501000.

Date/timePositionNaut miles runAvg speedWind from/ knotsBaromVisibWave heightAir tempDewpointWater temp
2018-Aug-09 06:17N 01°32' E 103°01'517.9
2018-Aug-09 06:00N 01°29' E 103°05'917.4
2018-Aug-09 05:30N 01°24' E 103°12'917.1
2018-Aug-09 05:00N 01°19' E 103°19'817.2
2018-Aug-09 04:31N 01°14' E 103°26'611.8
2018-Aug-09 03:59N 01°14' E 103°32'5 9.8
2018-Aug-09 03:30N 01°19' E 103°33'1 2.5
2018-Aug-09 03:00N 01°20' E 103°33'0 0.2
2018-Aug-09 02:30N 01°20' E 103°33'0 0.0
2018-Aug-09 01:46N 01°20' E 103°33'0 0.0
2018-Aug-09 01:25N 01°20' E 103°33'0 0.0
2018-Aug-09 00:58N 01°20' E 103°33'0 0.0
2018-Aug-09 00:28N 01°20' E 103°33'0 0.0
2018-Aug-08 23:51N 01°20' E 103°33'0 0.0
2018-Aug-08 23:25N 01°20' E 103°33'0 0.0
2018-Aug-08 22:55N 01°20' E 103°33'0 0.0
2018-Aug-08 22:27N 01°20' E 103°33'0 0.0
2018-Aug-08 21:46N 01°20' E 103°33'0 0.0
2018-Aug-08 21:28N 01°20' E 103°33'0 0.0
2018-Aug-08 21:00N 01°20' E 103°33'0 0.0
2018-Aug-08 20:28N 01°20' E 103°33'0 0.0
2018-Aug-08 19:58N 01°20' E 103°33'0 0.0
2018-Aug-08 19:28N 01°20' E 103°33'0 0.0
2018-Aug-08 18:58N 01°20' E 103°33'0 0.0
2018-Aug-08 18:30N 01°20' E 103°33'0 0.0
2018-Aug-08 17:51N 01°20' E 103°33'0 0.0
2018-Aug-08 17:19N 01°20' E 103°33'0 0.0
2018-Aug-08 16:58N 01°20' E 103°33'0 0.0
2018-Aug-08 16:30N 01°20' E 103°33'0 0.0
2018-Aug-08 15:57N 01°20' E 103°33'0 0.0
2018-Aug-08 15:25N 01°20' E 103°33'0 0.0
2018-Aug-08 14:46N 01°20' E 103°33'0 0.0
2018-Aug-08 14:28N 01°20' E 103°33'0 0.0
2018-Aug-08 14:00N 01°20' E 103°33'0 0.0
2018-Aug-08 13:25N 01°20' E 103°33'0 0.0
2018-Aug-08 13:00N 01°20' E 103°33'0 0.0
2018-Aug-08 12:28N 01°20' E 103°33'0 0.0
2018-Aug-08 11:30N 01°20' E 103°33'0 0.0
2018-Aug-08 10:58N 01°20' E 103°33'0 0.0
2018-Aug-08 10:25N 01°20' E 103°33'0 0.0
2018-Aug-08 10:00N 01°20' E 103°33'0 0.0
2018-Aug-08 09:30N 01°20' E 103°33'0 0.0
2018-Aug-08 09:00N 01°20' E 103°33'0 0.0
2018-Aug-08 08:25N 01°20' E 103°33'0 0.0
2018-Aug-08 07:55N 01°20' E 103°33'0 0.0
2018-Aug-08 07:16N 01°20' E 103°33'0 0.0
2018-Aug-08 06:58N 01°20' E 103°33'0 0.0
2018-Aug-08 06:27N 01°20' E 103°33'0 0.0
2018-Aug-08 06:00N 01°20' E 103°33'0 0.0
2018-Aug-08 05:28N 01°20' E 103°33'0 0.0
2018-Aug-08 04:07N 01°20' E 103°33'0 0.0
2018-Aug-08 03:58N 01°20' E 103°33'0 0.0
2018-Aug-08 03:30N 01°20' E 103°33'1 1.6
2018-Aug-08 03:00N 01°19' E 103°33'4 7.1
2018-Aug-08 02:30N 01°16' E 103°33'4 8.0
2018-Aug-08 02:00N 01°12' E 103°34'611.9
2018-Aug-08 01:30N 01°11' E 103°40'510.5
2018-Aug-08 01:00N 01°09' E 103°45'713.8
2018-Aug-08 00:30N 01°12' E 103°51'612.6
2018-Aug-08 00:00N 01°14' E 103°57'612.1
2018-Aug-07 23:30N 01°16' E 104°02'814.6
2018-Aug-07 22:59N 01°16' E 104°10'714.3
2018-Aug-07 22:30N 01°18' E 104°17'814.7
2018-Aug-07 21:58N 01°22' E 104°24'715.5
2018-Aug-07 21:30N 01°26' E 104°29'814.8
2018-Aug-07 20:59N 01°32' E 104°34'714.7
2018-Aug-07 20:30N 01°38' E 104°38'914.5
2018-Aug-07 19:54N 01°46' E 104°41'614.0
2018-Aug-07 19:30N 01°51' E 104°43'813.5
2018-Aug-07 18:54N 01°59' E 104°46'  
2018-Aug-02 07:34N 22°50' E 116°57'111.2
2018-Aug-02 07:30N 22°51' E 116°57'510.8
2018-Aug-02 07:01N 22°55' E 117°01'2 4.6
2018-Aug-02 06:30N 22°56' E 117°03'2 3.9
2018-Aug-02 05:55N 22°57' E 117°05'8 4.2
2018-Aug-02 03:55N 23°02' E 117°13'9 5.5
2018-Aug-02 02:14N 23°08' E 117°21'415.4
2018-Aug-02 02:00N 23°10' E 117°23'815.8
2018-Aug-02 01:31N 23°15' E 117°30'815.9
2018-Aug-02 01:00N 23°19' E 117°38'816.2
2018-Aug-02 00:29N 23°24' E 117°45'816.0
2018-Aug-02 00:00N 23°28' E 117°52'613.0
2018-Aug-01 23:30N 23°33' E 117°57'612.2
2018-Aug-01 23:00N 23°37' E 118°02'510.4
2018-Aug-01 22:30N 23°42' E 118°01'510.4
2018-Aug-01 22:00N 23°46' E 118°06'611.8
2018-Aug-01 21:30N 23°50' E 118°10'612.0
2018-Aug-01 21:00N 23°55' E 118°13'612.3
2018-Aug-01 20:30N 23°60' E 118°18'611.6
2018-Aug-01 20:00N 24°05' E 118°21'2 4.0
2018-Aug-01 19:30N 24°07' E 118°20'612.2
2018-Aug-01 19:00N 24°12' E 118°17'713.7
2018-Aug-01 18:30N 24°18' E 118°13'510.4
2018-Aug-01 18:00N 24°21' E 118°09'4 8.6
2018-Aug-01 17:30N 24°25' E 118°06'4 7.8
2018-Aug-01 17:00N 24°26' E 118°02'0 0.6
2018-Aug-01 16:30N 24°26' E 118°02'0 0.0
2018-Aug-01 16:00N 24°26' E 118°02'0 0.0
2018-Aug-01 15:30N 24°26' E 118°02'0 0.0
2018-Aug-01 15:00N 24°26' E 118°02'0 0.0
2018-Aug-01 14:30N 24°26' E 118°02'0 0.0
2018-Aug-01 13:30N 24°26' E 118°02'0 0.0
2018-Aug-01 13:00N 24°26' E 118°02'0 0.0
2018-Aug-01 12:30N 24°26' E 118°02'0 0.0
2018-Aug-01 12:00N 24°26' E 118°02'0 0.0
2018-Aug-01 11:30N 24°26' E 118°02'0 0.0
2018-Aug-01 11:00N 24°26' E 118°02'0 0.0
2018-Aug-01 10:30N 24°26' E 118°02'0 0.0
2018-Aug-01 10:00N 24°26' E 118°02'0 0.0
2018-Aug-01 09:30N 24°26' E 118°02'0 0.0
2018-Aug-01 09:00N 24°26' E 118°02'0 0.0
2018-Aug-01 08:30N 24°26' E 118°02'0 0.0
2018-Aug-01 08:00N 24°26' E 118°02'0 0.0
2018-Aug-01 07:30N 24°26' E 118°02'0 0.0
2018-Aug-01 07:00N 24°26' E 118°02'0 0.0
2018-Aug-01 06:30N 24°26' E 118°02'0 0.0
2018-Aug-01 06:00N 24°26' E 118°02'0 0.0
2018-Aug-01 05:30N 24°26' E 118°02'0 0.0
2018-Aug-01 05:00N 24°26' E 118°02'0 0.0
2018-Aug-01 04:30N 24°26' E 118°02'0 0.0
2018-Aug-01 04:00N 24°26' E 118°02'0 0.0
2018-Aug-01 03:30N 24°26' E 118°02'0 0.0
2018-Aug-01 03:00N 24°26' E 118°02'0 0.0
2018-Aug-01 02:30N 24°26' E 118°02'0 0.0
2018-Aug-01 02:00N 24°26' E 118°02'0 0.0
2018-Aug-01 01:30N 24°26' E 118°02'0 0.0
2018-Aug-01 01:00N 24°26' E 118°02'0 0.0
2018-Jul-31 22:30N 24°26' E 118°02'0 0.0
2018-Jul-31 22:00N 24°26' E 118°02'0 0.0
2018-Jul-31 21:30N 24°26' E 118°02'0 0.0
2018-Jul-31 21:01N 24°26' E 118°02'1 2.7
2018-Jul-31 20:30N 24°26' E 118°03'5 9.3
2018-Jul-31 20:00N 24°23' E 118°07'611.4
2018-Jul-31 19:30N 24°19' E 118°12'612.2
2018-Jul-31 19:00N 24°14' E 118°16'611.5
2018-Jul-31 18:30N 24°11' E 118°21'714.5
2018-Jul-31 18:00N 24°11' E 118°29'918.4
2018-Jul-31 17:30N 24°15' E 118°39'919.1
2018-Jul-31 17:00N 24°19' E 118°48'1019.7
2018-Jul-31 16:30N 24°23' E 118°58'1019.9
2018-Jul-31 16:00N 24°28' E 119°08'1020.0
2018-Jul-31 15:29N 24°32' E 119°18'39314.7
2018-Jul-30 12:41N 30°37' E 122°04'  
Track history (hours):
 
Tides and Currents Weather Stations Pressure Air Temp Water Temp Dewpoint Dewpoint Depression Visibility Wind Speed Wind Dir Waves Ship Positions

Edith Maersk

Last reported at 2018-Aug-09 06:17 UTC. Time now 2018-Aug-17 11:43 UTC.
Position N 01°32' E 103°01'.
Warning: this ship's position is 8 days out of date.

Length 399 m; draft 14.8 m.

Type: Ship (hazmat cat A). MMSI: 220501000.

Date/timePositionNaut miles runAvg speedWind from/ knotsBaromVisibWave heightAir tempDewpointWater temp
2018-Aug-09 06:17N 01°32' E 103°01'517.9
2018-Aug-09 06:00N 01°29' E 103°05'917.4
2018-Aug-09 05:30N 01°24' E 103°12'917.1
2018-Aug-09 05:00N 01°19' E 103°19'817.2
2018-Aug-09 04:31N 01°14' E 103°26'611.8
2018-Aug-09 03:59N 01°14' E 103°32'5 9.8
2018-Aug-09 03:30N 01°19' E 103°33'1 2.5
2018-Aug-09 03:00N 01°20' E 103°33'0 0.2
2018-Aug-09 02:30N 01°20' E 103°33'0 0.0
2018-Aug-09 01:46N 01°20' E 103°33'0 0.0
2018-Aug-09 01:25N 01°20' E 103°33'0 0.0
2018-Aug-09 00:58N 01°20' E 103°33'0 0.0
2018-Aug-09 00:28N 01°20' E 103°33'0 0.0
2018-Aug-08 23:51N 01°20' E 103°33'0 0.0
2018-Aug-08 23:25N 01°20' E 103°33'0 0.0
2018-Aug-08 22:55N 01°20' E 103°33'0 0.0
2018-Aug-08 22:27N 01°20' E 103°33'0 0.0
2018-Aug-08 21:46N 01°20' E 103°33'0 0.0
2018-Aug-08 21:28N 01°20' E 103°33'0 0.0
2018-Aug-08 21:00N 01°20' E 103°33'0 0.0
2018-Aug-08 20:28N 01°20' E 103°33'0 0.0
2018-Aug-08 19:58N 01°20' E 103°33'0 0.0
2018-Aug-08 19:28N 01°20' E 103°33'0 0.0
2018-Aug-08 18:58N 01°20' E 103°33'0 0.0
2018-Aug-08 18:30N 01°20' E 103°33'0 0.0
2018-Aug-08 17:51N 01°20' E 103°33'0 0.0
2018-Aug-08 17:19N 01°20' E 103°33'0 0.0
2018-Aug-08 16:58N 01°20' E 103°33'0 0.0
2018-Aug-08 16:30N 01°20' E 103°33'0 0.0
2018-Aug-08 15:57N 01°20' E 103°33'0 0.0
2018-Aug-08 15:25N 01°20' E 103°33'0 0.0
2018-Aug-08 14:46N 01°20' E 103°33'0 0.0
2018-Aug-08 14:28N 01°20' E 103°33'0 0.0
2018-Aug-08 14:00N 01°20' E 103°33'0 0.0
2018-Aug-08 13:25N 01°20' E 103°33'0 0.0
2018-Aug-08 13:00N 01°20' E 103°33'0 0.0
2018-Aug-08 12:28N 01°20' E 103°33'0 0.0
2018-Aug-08 11:30N 01°20' E 103°33'0 0.0
2018-Aug-08 10:58N 01°20' E 103°33'0 0.0
2018-Aug-08 10:25N 01°20' E 103°33'0 0.0
2018-Aug-08 10:00N 01°20' E 103°33'0 0.0
2018-Aug-08 09:30N 01°20' E 103°33'0 0.0
2018-Aug-08 09:00N 01°20' E 103°33'0 0.0
2018-Aug-08 08:25N 01°20' E 103°33'0 0.0
2018-Aug-08 07:55N 01°20' E 103°33'0 0.0
2018-Aug-08 07:16N 01°20' E 103°33'0 0.0
2018-Aug-08 06:58N 01°20' E 103°33'0 0.0
2018-Aug-08 06:27N 01°20' E 103°33'0 0.0
2018-Aug-08 06:00N 01°20' E 103°33'0 0.0
2018-Aug-08 05:28N 01°20' E 103°33'0 0.0
2018-Aug-08 04:07N 01°20' E 103°33'0 0.0
2018-Aug-08 03:58N 01°20' E 103°33'0 0.0
2018-Aug-08 03:30N 01°20' E 103°33'1 1.6
2018-Aug-08 03:00N 01°19' E 103°33'4 7.1
2018-Aug-08 02:30N 01°16' E 103°33'4 8.0
2018-Aug-08 02:00N 01°12' E 103°34'611.9
2018-Aug-08 01:30N 01°11' E 103°40'510.5
2018-Aug-08 01:00N 01°09' E 103°45'713.8
2018-Aug-08 00:30N 01°12' E 103°51'612.6
2018-Aug-08 00:00N 01°14' E 103°57'612.1
2018-Aug-07 23:30N 01°16' E 104°02'814.6
2018-Aug-07 22:59N 01°16' E 104°10'714.3
2018-Aug-07 22:30N 01°18' E 104°17'814.7
2018-Aug-07 21:58N 01°22' E 104°24'715.5
2018-Aug-07 21:30N 01°26' E 104°29'814.8
2018-Aug-07 20:59N 01°32' E 104°34'714.7
2018-Aug-07 20:30N 01°38' E 104°38'914.5
2018-Aug-07 19:54N 01°46' E 104°41'614.0
2018-Aug-07 19:30N 01°51' E 104°43'813.5
2018-Aug-07 18:54N 01°59' E 104°46'  
2018-Aug-02 07:34N 22°50' E 116°57'111.2
2018-Aug-02 07:30N 22°51' E 116°57'510.8
2018-Aug-02 07:01N 22°55' E 117°01'2 4.6
2018-Aug-02 06:30N 22°56' E 117°03'2 3.9
2018-Aug-02 05:55N 22°57' E 117°05'8 4.2
2018-Aug-02 03:55N 23°02' E 117°13'9 5.5
2018-Aug-02 02:14N 23°08' E 117°21'415.4
2018-Aug-02 02:00N 23°10' E 117°23'815.8
2018-Aug-02 01:31N 23°15' E 117°30'815.9
2018-Aug-02 01:00N 23°19' E 117°38'816.2
2018-Aug-02 00:29N 23°24' E 117°45'816.0
2018-Aug-02 00:00N 23°28' E 117°52'613.0
2018-Aug-01 23:30N 23°33' E 117°57'612.2
2018-Aug-01 23:00N 23°37' E 118°02'510.4
2018-Aug-01 22:30N 23°42' E 118°01'510.4
2018-Aug-01 22:00N 23°46' E 118°06'611.8
2018-Aug-01 21:30N 23°50' E 118°10'612.0
2018-Aug-01 21:00N 23°55' E 118°13'612.3
2018-Aug-01 20:30N 23°60' E 118°18'611.6
2018-Aug-01 20:00N 24°05' E 118°21'2 4.0
2018-Aug-01 19:30N 24°07' E 118°20'612.2
2018-Aug-01 19:00N 24°12' E 118°17'713.7
2018-Aug-01 18:30N 24°18' E 118°13'510.4
2018-Aug-01 18:00N 24°21' E 118°09'4 8.6
2018-Aug-01 17:30N 24°25' E 118°06'4 7.8
2018-Aug-01 17:00N 24°26' E 118°02'0 0.6
2018-Aug-01 16:30N 24°26' E 118°02'0 0.0
2018-Aug-01 16:00N 24°26' E 118°02'0 0.0
2018-Aug-01 15:30N 24°26' E 118°02'0 0.0
2018-Aug-01 15:00N 24°26' E 118°02'0 0.0
2018-Aug-01 14:30N 24°26' E 118°02'0 0.0
2018-Aug-01 13:30N 24°26' E 118°02'0 0.0
2018-Aug-01 13:00N 24°26' E 118°02'0 0.0
2018-Aug-01 12:30N 24°26' E 118°02'0 0.0
2018-Aug-01 12:00N 24°26' E 118°02'0 0.0
2018-Aug-01 11:30N 24°26' E 118°02'0 0.0
2018-Aug-01 11:00N 24°26' E 118°02'0 0.0
2018-Aug-01 10:30N 24°26' E 118°02'0 0.0
2018-Aug-01 10:00N 24°26' E 118°02'0 0.0
2018-Aug-01 09:30N 24°26' E 118°02'0 0.0
2018-Aug-01 09:00N 24°26' E 118°02'0 0.0
2018-Aug-01 08:30N 24°26' E 118°02'0 0.0
2018-Aug-01 08:00N 24°26' E 118°02'0 0.0
2018-Aug-01 07:30N 24°26' E 118°02'0 0.0
2018-Aug-01 07:00N 24°26' E 118°02'0 0.0
2018-Aug-01 06:30N 24°26' E 118°02'0 0.0
2018-Aug-01 06:00N 24°26' E 118°02'0 0.0
2018-Aug-01 05:30N 24°26' E 118°02'0 0.0
2018-Aug-01 05:00N 24°26' E 118°02'0 0.0
2018-Aug-01 04:30N 24°26' E 118°02'0 0.0
2018-Aug-01 04:00N 24°26' E 118°02'0 0.0
2018-Aug-01 03:30N 24°26' E 118°02'0 0.0
2018-Aug-01 03:00N 24°26' E 118°02'0 0.0
2018-Aug-01 02:30N 24°26' E 118°02'0 0.0
2018-Aug-01 02:00N 24°26' E 118°02'0 0.0
2018-Aug-01 01:30N 24°26' E 118°02'0 0.0
2018-Aug-01 01:00N 24°26' E 118°02'0 0.0
2018-Jul-31 22:30N 24°26' E 118°02'0 0.0
2018-Jul-31 22:00N 24°26' E 118°02'0 0.0
2018-Jul-31 21:30N 24°26' E 118°02'0 0.0
2018-Jul-31 21:01N 24°26' E 118°02'1 2.7
2018-Jul-31 20:30N 24°26' E 118°03'5 9.3
2018-Jul-31 20:00N 24°23' E 118°07'611.4
2018-Jul-31 19:30N 24°19' E 118°12'612.2
2018-Jul-31 19:00N 24°14' E 118°16'611.5
2018-Jul-31 18:30N 24°11' E 118°21'714.5
2018-Jul-31 18:00N 24°11' E 118°29'918.4
2018-Jul-31 17:30N 24°15' E 118°39'919.1
2018-Jul-31 17:00N 24°19' E 118°48'1019.7
2018-Jul-31 16:30N 24°23' E 118°58'1019.9
2018-Jul-31 16:00N 24°28' E 119°08'1020.0
2018-Jul-31 15:29N 24°32' E 119°18'39314.7
2018-Jul-30 12:41N 30°37' E 122°04'  

Dump ship's entire track history